Observation data for Morton on 12/10/2018      Previous  Date       Current Mesonet Observations  Soil Data  Daily Summary Page  Observations in Plain Language
KMNS 100600Z 28005KT M03/M04 A3038 RMK A01 T10321044  RH  092%=      5-min Rain = 0
KMNS 100605Z 29006KT M03/M04 A3038 RMK A01 T10311042  RH  092%=      5-min Rain = 0
KMNS 100610Z 28006KT M03/M04 A3038 RMK A01 T10291041  RH  092%=      5-min Rain = 0
KMNS 100615Z 28006KT M03/M04 A3037 RMK A01 T10291041  RH  092%=      5-min Rain = 0
KMNS 100620Z 27005KT M03/M04 A3037 RMK A01 T10301042  RH  092%=      5-min Rain = 0
KMNS 100625Z 28006KT M03/M04 A3037 RMK A01 T10311043  RH  092%=      5-min Rain = 0
KMNS 100630Z 29006KT M03/M04 A3037 RMK A01 T10321044  RH  092%=      5-min Rain = 0
KMNS 100635Z 29006KT M03/M04 A3037 RMK A01 T10321044  RH  092%=      5-min Rain = 0
KMNS 100640Z 29007KT M03/M04 A3037 RMK A01 T10321044  RH  092%=      5-min Rain = 0
KMNS 100645Z 29007KT M03/M04 A3037 RMK A01 T10321044  RH  092%=      5-min Rain = 0
KMNS 100650Z 30006KT M03/M05 A3036 RMK A01 T10341046  RH  092%=      5-min Rain = 0
KMNS 100655Z 30006KT M04/M05 A3036 RMK A01 T10391052  RH  091%=      5-min Rain = 0
KMNS 100700Z 30008KT M04/M05 A3036 RMK A01 T10401052  RH  091%=      5-min Rain = 0
KMNS 100705Z 30007KT M04/M05 A3036 RMK A01 T10381049  RH  092%=      5-min Rain = 0
KMNS 100710Z 29007KT M04/M05 A3036 RMK A01 T10391051  RH  092%=      5-min Rain = 0
KMNS 100715Z 29006KT M04/M05 A3036 RMK A01 T10411053  RH  092%=      5-min Rain = 0
KMNS 100720Z 29006KT M04/M05 A3036 RMK A01 T10421054  RH  092%=      5-min Rain = 0
KMNS 100725Z 29006KT M04/M05 A3035 RMK A01 T10411052  RH  092%=      5-min Rain = 0
KMNS 100730Z 29006KT M04/M05 A3035 RMK A01 T10411052  RH  092%=      5-min Rain = 0
KMNS 100735Z 29007KT M04/M05 A3035 RMK A01 T10411052  RH  092%=      5-min Rain = 0
KMNS 100740Z 28007KT M04/M05 A3035 RMK A01 T10421053  RH  092%=      5-min Rain = 0
KMNS 100745Z 28006KT M04/M05 A3035 RMK A01 T10431054  RH  093%=      5-min Rain = 0
KMNS 100750Z 28006KT M05/M06 A3035 RMK A01 T10461057  RH  092%=      5-min Rain = 0
KMNS 100755Z 28006KT M05/M06 A3035 RMK A01 T10461057  RH  092%=      5-min Rain = 0
KMNS 100800Z 27006KT M05/M06 A3035 RMK A01 T10461057  RH  093%=      5-min Rain = 0
KMNS 100805Z 27006KT M05/M06 A3035 RMK A01 T10471058  RH  092%=      5-min Rain = 0
KMNS 100810Z 27005KT M05/M06 A3035 RMK A01 T10491060  RH  092%=      5-min Rain = 0
KMNS 100815Z 27006KT M05/M06 A3035 RMK A01 T10501060  RH  092%=      5-min Rain = 0
KMNS 100820Z 28006KT M05/M06 A3035 RMK A01 T10471058  RH  093%=      5-min Rain = 0
KMNS 100825Z 29007KT M04/M05 A3035 RMK A01 T10421052  RH  093%=      5-min Rain = 0
KMNS 100830Z 29007KT M04/M05 A3035 RMK A01 T10411051  RH  093%=      5-min Rain = 0
KMNS 100835Z 29007KT M04/M05 A3035 RMK A01 T10431052  RH  093%=      5-min Rain = 0
KMNS 100840Z 29006KT M04/M05 A3034 RMK A01 T10431053  RH  093%=      5-min Rain = 0
KMNS 100845Z 30006KT M05/M06 A3034 RMK A01 T10471057  RH  093%=      5-min Rain = 0
KMNS 100850Z 30007KT M05/M06 A3034 RMK A01 T10491060  RH  093%=      5-min Rain = 0
KMNS 100855Z 29006KT M05/M06 A3034 RMK A01 T10471057  RH  093%=      5-min Rain = 0
KMNS 100900Z 29006KT M05/M06 A3034 RMK A01 T10481058  RH  093%=      5-min Rain = 0
KMNS 100905Z 29006KT M05/M06 A3034 RMK A01 T10511062  RH  093%=      5-min Rain = 0
KMNS 100910Z 29006KT M05/M06 A3034 RMK A01 T10501060  RH  093%=      5-min Rain = 0
KMNS 100915Z 29007KT M05/M06 A3034 RMK A01 T10501060  RH  093%=      5-min Rain = 0
KMNS 100920Z 29007KT M05/M06 A3034 RMK A01 T10461056  RH  093%=      5-min Rain = 0
KMNS 100925Z 29007KT M05/M06 A3034 RMK A01 T10461056  RH  093%=      5-min Rain = 0
KMNS 100930Z 29007KT M05/M06 A3033 RMK A01 T10451055  RH  093%=      5-min Rain = 0
KMNS 100935Z 29007KT M04/M05 A3033 RMK A01 T10441054  RH  093%=      5-min Rain = 0
KMNS 100940Z 29007KT M04/M05 A3033 RMK A01 T10431053  RH  093%=      5-min Rain = 0
KMNS 100945Z 29007KT M04/M05 A3033 RMK A01 T10431054  RH  093%=      5-min Rain = 0
KMNS 100950Z 29007KT M04/M06 A3033 RMK A01 T10441055  RH  092%=      5-min Rain = 0
KMNS 100955Z 29007KT M04/M06 A3033 RMK A01 T10431055  RH  092%=      5-min Rain = 0
KMNS 101000Z 29007KT M04/M06 A3033 RMK A01 T10431055  RH  092%=      5-min Rain = 0
KMNS 101005Z 29006KT M04/M06 A3033 RMK A01 T10441056  RH  092%=      5-min Rain = 0
KMNS 101010Z 29006KT M05/M06 A3033 RMK A01 T10451057  RH  092%=      5-min Rain = 0
KMNS 101015Z 28006KT M05/M06 A3033 RMK A01 T10461058  RH  091%=      5-min Rain = 0
KMNS 101020Z 28006KT M05/M06 A3033 RMK A01 T10481060  RH  091%=      5-min Rain = 0
KMNS 101025Z 28006KT M05/M06 A3033 RMK A01 T10491062  RH  091%=      5-min Rain = 0
KMNS 101030Z 28006KT M05/M06 A3033 RMK A01 T10491061  RH  091%=      5-min Rain = 0
KMNS 101035Z 29006KT M05/M06 A3033 RMK A01 T10481060  RH  091%=      5-min Rain = 0
KMNS 101040Z 28006KT M05/M06 A3033 RMK A01 T10471059  RH  091%=      5-min Rain = 0
KMNS 101045Z 29006KT M05/M06 A3032 RMK A01 T10481061  RH  091%=      5-min Rain = 0
KMNS 101050Z 29005KT M05/M06 A3032 RMK A01 T10501063  RH  091%=      5-min Rain = 0
KMNS 101055Z 29005KT M05/M07 A3032 RMK A01 T10531066  RH  091%=      5-min Rain = 0
KMNS 101100Z 30005KT M06/M07 A3032 RMK A01 T10551068  RH  091%=      5-min Rain = 0
KMNS 101105Z 30006KT M06/M07 A3032 RMK A01 T10551068  RH  091%=      5-min Rain = 0
KMNS 101110Z 30006KT M05/M07 A3032 RMK A01 T10541066  RH  091%=      5-min Rain = 0
KMNS 101115Z 30006KT M05/M07 A3032 RMK A01 T10541067  RH  091%=      5-min Rain = 0
KMNS 101120Z 30006KT M06/M07 A3033 RMK A01 T10561068  RH  091%=      5-min Rain = 0
KMNS 101125Z 30006KT M06/M07 A3033 RMK A01 T10581070  RH  091%=      5-min Rain = 0
KMNS 101130Z 30006KT M06/M07 A3033 RMK A01 T10571069  RH  091%=      5-min Rain = 0
KMNS 101135Z 30007KT M06/M07 A3033 RMK A01 T10561068  RH  091%=      5-min Rain = 0
KMNS 101140Z 30006KT M06/M07 A3033 RMK A01 T10571070  RH  091%=      5-min Rain = 0
KMNS 101145Z 29006KT M06/M07 A3033 RMK A01 T10581070  RH  091%=      5-min Rain = 0
KMNS 101150Z 27007KT M06/M07 A3033 RMK A01 T10611074  RH  091%=      5-min Rain = 0
KMNS 101155Z 27006KT M06/M07 A3034 RMK A01 T10571069  RH  091%=      5-min Rain = 0
KMNS 101200Z 28006KT M06/M07 A3034 RMK A01 T10581070  RH  091%=      5-min Rain = 0
KMNS 101205Z 29006KT M06/M07 A3034 RMK A01 T10561068  RH  091%=      5-min Rain = 0
KMNS 101210Z 29007KT M05/M06 A3034 RMK A01 T10521064  RH  091%=      5-min Rain = 0
KMNS 101215Z 29007KT M05/M06 A3034 RMK A01 T10491061  RH  091%=      5-min Rain = 0
KMNS 101220Z 29007KT M05/M06 A3034 RMK A01 T10481060  RH  091%=      5-min Rain = 0
KMNS 101225Z 29006KT M05/M06 A3034 RMK A01 T10471060  RH  091%=      5-min Rain = 0
KMNS 101230Z 29005KT M05/M07 A3034 RMK A01 T10541067  RH  090%=      5-min Rain = 0
KMNS 101235Z 29006KT M06/M07 A3034 RMK A01 T10581072  RH  090%=      5-min Rain = 0
KMNS 101240Z 29006KT M06/M07 A3034 RMK A01 T10551067  RH  091%=      5-min Rain = 0
KMNS 101245Z 29006KT M05/M07 A3034 RMK A01 T10541067  RH  091%=      5-min Rain = 0
KMNS 101250Z 29006KT M06/M07 A3034 RMK A01 T10571070  RH  091%=      5-min Rain = 0
KMNS 101255Z 28007KT M06/M07 A3034 RMK A01 T10581071  RH  091%=      5-min Rain = 0
KMNS 101300Z 28006KT M05/M07 A3034 RMK A01 T10531065  RH  091%=      5-min Rain = 0
KMNS 101305Z 28006KT M05/M07 A3034 RMK A01 T10531065  RH  091%=      5-min Rain = 0
KMNS 101310Z 28006KT M05/M06 A3034 RMK A01 T10521064  RH  091%=      5-min Rain = 0
KMNS 101315Z 28006KT M05/M06 A3034 RMK A01 T10501062  RH  092%=      5-min Rain = 0
KMNS 101320Z 28005KT M05/M06 A3034 RMK A01 T10491061  RH  092%=      5-min Rain = 0
KMNS 101325Z 28006KT M05/M06 A3035 RMK A01 T10491061  RH  092%=      5-min Rain = 0
KMNS 101330Z 28006KT M05/M06 A3035 RMK A01 T10501061  RH  092%=      5-min Rain = 0
KMNS 101335Z 28006KT M05/M06 A3035 RMK A01 T10491060  RH  092%=      5-min Rain = 0
KMNS 101340Z 28006KT M05/M06 A3035 RMK A01 T10481060  RH  092%=      5-min Rain = 0
KMNS 101345Z 28006KT M05/M06 A3035 RMK A01 T10491061  RH  092%=      5-min Rain = 0
KMNS 101350Z 28006KT M05/M06 A3035 RMK A01 T10511062  RH  092%=      5-min Rain = 0
KMNS 101355Z 28005KT M05/M06 A3035 RMK A01 T10511063  RH  091%=      5-min Rain = 0
KMNS 101400Z 28005KT M05/M06 A3035 RMK A01 T10521064  RH  091%=      5-min Rain = 0
KMNS 101405Z 28005KT M05/M06 A3035 RMK A01 T10521064  RH  091%=      5-min Rain = 0
KMNS 101410Z 28005KT M05/M06 A3035 RMK A01 T10501062  RH  091%=      5-min Rain = 0
KMNS 101415Z 29005KT M05/M06 A3035 RMK A01 T10461058  RH  091%=      5-min Rain = 0
KMNS 101420Z 29006KT M04/M05 A3035 RMK A01 T10411053  RH  092%=      5-min Rain = 0
KMNS 101425Z 29006KT M04/M05 A3035 RMK A01 T10371049  RH  092%=      5-min Rain = 0
KMNS 101430Z 29006KT M04/M05 A3035 RMK A01 T10351047  RH  091%=      5-min Rain = 0
KMNS 101435Z 29006KT M03/M05 A3035 RMK A01 T10321045  RH  091%=      5-min Rain = 0
KMNS 101440Z 29005KT M03/M04 A3035 RMK A01 T10291043  RH  091%=      5-min Rain = 0
KMNS 101445Z 29006KT M03/M04 A3036 RMK A01 T10261040  RH  091%=      5-min Rain = 0
KMNS 101450Z 29006KT M02/M04 A3036 RMK A01 T10221036  RH  091%=      5-min Rain = 0
KMNS 101455Z 29006KT M02/M03 A3036 RMK A01 T10181032  RH  090%=      5-min Rain = 0
KMNS 101500Z 29005KT M01/M03 A3036 RMK A01 T10131029  RH  090%=      5-min Rain = 0
KMNS 101505Z 28005KT M01/M03 A3036 RMK A01 T10101026  RH  089%=      5-min Rain = 0
KMNS 101510Z 28005KT M01/M03 A3036 RMK A01 T10081025  RH  089%=      5-min Rain = 0
KMNS 101515Z 28006KT M01/M02 A3036 RMK A01 T10051023  RH  088%=      5-min Rain = 0
KMNS 101520Z 28006KT M00/M02 A3036 RMK A01 T10011021  RH  088%=      5-min Rain = 0
KMNS 101525Z 28006KT 00/M02 A3036 RMK A01 T00011020  RH  087%=      5-min Rain = 0
KMNS 101530Z 28006KT 00/M02 A3037 RMK A01 T00021019  RH  086%=      5-min Rain = 0
KMNS 101535Z 28006KT 00/M02 A3037 RMK A01 T00041017  RH  086%=      5-min Rain = 0
KMNS 101540Z 28005KT 01/M02 A3037 RMK A01 T00071016  RH  086%=      5-min Rain = 0
KMNS 101545Z 28005KT 01/M02 A3037 RMK A01 T00071016  RH  085%=      5-min Rain = 0
KMNS 101550Z 27005KT 01/M02 A3037 RMK A01 T00081016  RH  085%=      5-min Rain = 0
KMNS 101555Z 27005KT 01/M02 A3037 RMK A01 T00101015  RH  084%=      5-min Rain = 0
KMNS 101600Z 27006KT 01/M01 A3037 RMK A01 T00131014  RH  083%=      5-min Rain = 0
KMNS 101605Z 27007KT 02/M01 A3037 RMK A01 T00151013  RH  082%=      5-min Rain = 0
KMNS 101610Z 28006KT 02/M01 A3036 RMK A01 T00191010  RH  082%=      5-min Rain = 0
KMNS 101615Z 27007KT 02/M01 A3036 RMK A01 T00211010  RH  080%=      5-min Rain = 0
KMNS 101620Z 28007KT 02/M01 A3036 RMK A01 T00231010  RH  079%=      5-min Rain = 0
KMNS 101625Z 28005KT 03/M01 A3037 RMK A01 T00251009  RH  079%=      5-min Rain = 0
KMNS 101630Z 29005KT 03/M01 A3037 RMK A01 T00301006  RH  078%=      5-min Rain = 0
KMNS 101635Z 29005KT 03/M01 A3037 RMK A01 T00291010  RH  076%=      5-min Rain = 0
KMNS 101640Z 29006KT 03/M01 A3037 RMK A01 T00291011  RH  076%=      5-min Rain = 0
KMNS 101645Z 29006KT 03/M01 A3037 RMK A01 T00321009  RH  075%=      5-min Rain = 0
KMNS 101650Z 28005KT 03/M01 A3036 RMK A01 T00341008  RH  074%=      5-min Rain = 0
KMNS 101655Z 28005KT 04/M01 A3036 RMK A01 T00391006  RH  073%=      5-min Rain = 0
KMNS 101700Z 28005KT 04/M01 A3036 RMK A01 T00391007  RH  073%=      5-min Rain = 0
KMNS 101705Z 29005KT 04/M01 A3036 RMK A01 T00421005  RH  072%=      5-min Rain = 0
KMNS 101710Z 27004KT 05/M00 A3036 RMK A01 T00451003  RH  071%=      5-min Rain = 0
KMNS 101715Z 28005KT 05/M00 A3036 RMK A01 T00471003  RH  071%=      5-min Rain = 0
KMNS 101720Z 27005KT 05/M00 A3035 RMK A01 T00501002  RH  070%=      5-min Rain = 0
KMNS 101725Z 27004KT 06/00 A3035 RMK A01 T00550000  RH  069%=      5-min Rain = 0
KMNS 101730Z 27005KT 06/00 A3035 RMK A01 T00560000  RH  068%=      5-min Rain = 0
KMNS 101735Z 27005KT 06/00 A3035 RMK A01 T00590001  RH  067%=      5-min Rain = 0
KMNS 101740Z 27006KT 06/00 A3035 RMK A01 T00610001  RH  066%=      5-min Rain = 0
KMNS 101745Z 27006KT 06/00 A3035 RMK A01 T00640003  RH  066%=      5-min Rain = 0
KMNS 101750Z 27006KT 07/00 A3034 RMK A01 T00680003  RH  064%=      5-min Rain = 0
KMNS 101755Z 27007KT 07/00 A3034 RMK A01 T00690002  RH  063%=      5-min Rain = 0
KMNS 101800Z 27007KT 07/00 A3034 RMK A01 T00710001  RH  062%=      5-min Rain = 0
KMNS 101805Z 28005KT 08/01 A3033 RMK A01 T00770005  RH  061%=      5-min Rain = 0
KMNS 101810Z 27006KT 08/00 A3033 RMK A01 T00760002  RH  060%=      5-min Rain = 0
KMNS 101815Z 27006KT 08/00 A3033 RMK A01 T00760003  RH  060%=      5-min Rain = 0
KMNS 101820Z 27006KT 08/00 A3032 RMK A01 T00780003  RH  060%=      5-min Rain = 0
KMNS 101825Z 28006KT 08/00 A3032 RMK A01 T00780004  RH  060%=      5-min Rain = 0
KMNS 101830Z 29006KT 08/01 A3032 RMK A01 T00770007  RH  062%=      5-min Rain = 0
KMNS 101835Z 28007KT 08/01 A3032 RMK A01 T00770006  RH  062%=      5-min Rain = 0
KMNS 101840Z 29006KT 08/01 A3032 RMK A01 T00800009  RH  061%=      5-min Rain = 0
KMNS 101845Z 29006KT 08/01 A3032 RMK A01 T00800008  RH  061%=      5-min Rain = 0
KMNS 101850Z 29007KT 08/01 A3031 RMK A01 T00810005  RH  060%=      5-min Rain = 0
KMNS 101855Z 28007KT 08/01 A3031 RMK A01 T00820006  RH  059%=      5-min Rain = 0
KMNS 101900Z 28007KT 09/01 A3031 RMK A01 T00860006  RH  058%=      5-min Rain = 0
KMNS 101905Z 27006KT 09/01 A3031 RMK A01 T00860006  RH  058%=      5-min Rain = 0
KMNS 101910Z 26006KT 09/01 A303 RMK A01 T00870007  RH  058%=      5-min Rain = 0
KMNS 101915Z 27006KT 09/01 A303 RMK A01 T00900008  RH  057%=      5-min Rain = 0
KMNS 101920Z 27005KT 09/01 A303 RMK A01 T00940010  RH  057%=      5-min Rain = 0
KMNS 101925Z 28006KT 10/01 A303 RMK A01 T00980008  RH  054%=      5-min Rain = 0
KMNS 101930Z 28007KT 10/01 A303 RMK A01 T00960005  RH  054%=      5-min Rain = 0
KMNS 101935Z 28005KT 10/01 A3029 RMK A01 T00990006  RH  053%=      5-min Rain = 0
KMNS 101940Z 27006KT 10/00 A3029 RMK A01 T00990002  RH  052%=      5-min Rain = 0
KMNS 101945Z 26006KT 10/00 A3029 RMK A01 T00990002  RH  051%=      5-min Rain = 0
KMNS 101950Z 26006KT 10/00 A3029 RMK A01 T01000002  RH  051%=      5-min Rain = 0
KMNS 101955Z 26005KT 10/00 A3029 RMK A01 T01010003  RH  051%=      5-min Rain = 0
KMNS 102000Z 26005KT 10/00 A3029 RMK A01 T01020003  RH  051%=      5-min Rain = 0
KMNS 102005Z 27004KT 10/00 A3028 RMK A01 T01040004  RH  050%=      5-min Rain = 0
KMNS 102010Z 26004KT 11/00 A3028 RMK A01 T01060003  RH  049%=      5-min Rain = 0
KMNS 102015Z 26003KT 11/00 A3028 RMK A01 T01070002  RH  049%=      5-min Rain = 0
KMNS 102020Z 25004KT 11/00 A3028 RMK A01 T01070001  RH  048%=      5-min Rain = 0
KMNS 102025Z 27003KT 11/00 A3027 RMK A01 T01080002  RH  048%=      5-min Rain = 0
KMNS 102030Z 29003KT 11/00 A3027 RMK A01 T01090001  RH  048%=      5-min Rain = 0
KMNS 102035Z 30004KT 11/00 A3027 RMK A01 T011000-0  RH  047%=      5-min Rain = 0
KMNS 102040Z 30004KT 11/M00 A3027 RMK A01 T01071003  RH  047%=      5-min Rain = 0
KMNS 102045Z 30004KT 11/M00 A3027 RMK A01 T01071004  RH  047%=      5-min Rain = 0
KMNS 102050Z 30004KT 11/M00 A3027 RMK A01 T01101004  RH  046%=      5-min Rain = 0
KMNS 102055Z 29004KT 11/M00 A3027 RMK A01 T01101004  RH  046%=      5-min Rain = 0
KMNS 102100Z 29004KT 11/M01 A3026 RMK A01 T01101007  RH  045%=      5-min Rain = 0
KMNS 102105Z 29003KT 11/M01 A3026 RMK A01 T01131007  RH  044%=      5-min Rain = 0
KMNS 102110Z 30004KT 12/M01 A3026 RMK A01 T01151006  RH  044%=      5-min Rain = 0
KMNS 102115Z 30004KT 11/M01 A3026 RMK A01 T01131008  RH  044%=      5-min Rain = 0
KMNS 102120Z 29004KT 11/M01 A3026 RMK A01 T01131010  RH  043%=      5-min Rain = 0
KMNS 102125Z 29004KT 11/M01 A3026 RMK A01 T01121012  RH  043%=      5-min Rain = 0
KMNS 102130Z 29003KT 11/M01 A3026 RMK A01 T01131014  RH  042%=      5-min Rain = 0
KMNS 102135Z 29004KT 11/M02 A3026 RMK A01 T01121016  RH  041%=      5-min Rain = 0
KMNS 102140Z 28003KT 11/M01 A3026 RMK A01 T01121012  RH  042%=      5-min Rain = 0
KMNS 102145Z 29003KT 11/M01 A3026 RMK A01 T01111012  RH  043%=      5-min Rain = 0
KMNS 102150Z 28003KT 11/M01 A3026 RMK A01 T01131012  RH  042%=      5-min Rain = 0
KMNS 102155Z 28004KT 12/M01 A3026 RMK A01 T01171010  RH  042%=      5-min Rain = 0
KMNS 102200Z 28004KT 12/M01 A3026 RMK A01 T01171011  RH  041%=      5-min Rain = 0
KMNS 102205Z 29004KT 12/M01 A3025 RMK A01 T01161009  RH  042%=      5-min Rain = 0
KMNS 102210Z 29003KT 12/M01 A3026 RMK A01 T01151008  RH  043%=      5-min Rain = 0
KMNS 102215Z 29003KT 12/M01 A3026 RMK A01 T01151009  RH  043%=      5-min Rain = 0
KMNS 102220Z 29003KT 11/M01 A3026 RMK A01 T01131009  RH  043%=      5-min Rain = 0
KMNS 102225Z 29002KT 12/M01 A3026 RMK A01 T01171008  RH  042%=      5-min Rain = 0
KMNS 102230Z 27002KT 12/M01 A3026 RMK A01 T01201011  RH  041%=      5-min Rain = 0
KMNS 102235Z 26001KT 12/M01 A3025 RMK A01 T01231009  RH  041%=      5-min Rain = 0
KMNS 102240Z 25002KT 13/M01 A3025 RMK A01 T01251009  RH  040%=      5-min Rain = 0
KMNS 102245Z 26003KT 13/M01 A3026 RMK A01 T01251011  RH  039%=      5-min Rain = 0
KMNS 102250Z 25003KT 12/M01 A3026 RMK A01 T01211012  RH  040%=      5-min Rain = 0
KMNS 102255Z 25002KT 12/M01 A3026 RMK A01 T01191012  RH  041%=      5-min Rain = 0
KMNS 102300Z 26001KT 12/M01 A3026 RMK A01 T01181010  RH  042%=      5-min Rain = 0
KMNS 102305Z 25001KT 12/M01 A3026 RMK A01 T01171008  RH  042%=      5-min Rain = 0
KMNS 102310Z 25001KT 11/M01 A3026 RMK A01 T01111009  RH  044%=      5-min Rain = 0
KMNS 102315Z 26001KT 11/M01 A3026 RMK A01 T01061008  RH  046%=      5-min Rain = 0
KMNS 102320Z 24001KT 10/M01 A3026 RMK A01 T01031010  RH  046%=      5-min Rain = 0
KMNS 102325Z 17002KT 10/M00 A3026 RMK A01 T00981002  RH  050%=      5-min Rain = 0
KMNS 102330Z 16003KT 09/M00 A3026 RMK A01 T00901001  RH  054%=      5-min Rain = 0
KMNS 102335Z 13004KT 08/00 A3026 RMK A01 T00780001  RH  059%=      5-min Rain = 0
KMNS 102340Z 12005KT 07/01 A3025 RMK A01 T00700008  RH  065%=      5-min Rain = 0
KMNS 102345Z 13005KT 06/01 A3025 RMK A01 T00640009  RH  068%=      5-min Rain = 0
KMNS 102350Z 13005KT 06/01 A3025 RMK A01 T00610011  RH  071%=      5-min Rain = 0
KMNS 102355Z 13004KT 06/01 A3025 RMK A01 T00570010  RH  073%=      5-min Rain = 0
KMNS 110000Z 13005KT 06/01 A3025 RMK A01 T00560013  RH  075%=      5-min Rain = 0
KMNS 110005Z 13004KT 06/01 A3025 RMK A01 T00560013  RH  075%=      5-min Rain = 0
KMNS 110010Z 13005KT 06/01 A3026 RMK A01 T00550013  RH  076%=      5-min Rain = 0
KMNS 110015Z 14004KT 06/01 A3026 RMK A01 T00550013  RH  076%=      5-min Rain = 0
KMNS 110020Z 14004KT 05/01 A3026 RMK A01 T00540013  RH  076%=      5-min Rain = 0
KMNS 110025Z 14005KT 05/01 A3026 RMK A01 T00540012  RH  075%=      5-min Rain = 0
KMNS 110030Z 16005KT 05/00 A3027 RMK A01 T00460004  RH  075%=      5-min Rain = 0
KMNS 110035Z 15004KT 04/00 A3027 RMK A01 T00370002  RH  079%=      5-min Rain = 0
KMNS 110040Z 15004KT 04/00 A3027 RMK A01 T00370004  RH  080%=      5-min Rain = 0
KMNS 110045Z 15004KT 04/00 A3026 RMK A01 T00350003  RH  080%=      5-min Rain = 0
KMNS 110050Z 16004KT 04/00 A3027 RMK A01 T00360003  RH  080%=      5-min Rain = 0
KMNS 110055Z 18003KT 03/M00 A3027 RMK A01 T00331002  RH  079%=      5-min Rain = 0
KMNS 110100Z 17004KT 03/M00 A3027 RMK A01 T00281003  RH  081%=      5-min Rain = 0
KMNS 110105Z 17004KT 03/00 A3026 RMK A01 T00310000  RH  081%=      5-min Rain = 0
KMNS 110110Z 18004KT 04/01 A3027 RMK A01 T00370005  RH  081%=      5-min Rain = 0
KMNS 110115Z 18003KT 04/00 A3026 RMK A01 T00380004  RH  079%=      5-min Rain = 0
KMNS 110120Z 19003KT 04/00 A3027 RMK A01 T00360003  RH  080%=      5-min Rain = 0
KMNS 110125Z 20003KT 04/00 A3027 RMK A01 T00350004  RH  081%=      5-min Rain = 0
KMNS 110130Z 19004KT 03/00 A3027 RMK A01 T00330003  RH  082%=      5-min Rain = 0
KMNS 110135Z 21004KT 03/00 A3027 RMK A01 T00330004  RH  082%=      5-min Rain = 0
KMNS 110140Z 22003KT 03/01 A3027 RMK A01 T00320005  RH  083%=      5-min Rain = 0
KMNS 110145Z 23002KT 03/00 A3027 RMK A01 T00300002  RH  083%=      5-min Rain = 0
KMNS 110150Z 21002KT 03/M00 A3027 RMK A01 T00251002  RH  083%=      5-min Rain = 0
KMNS 110155Z 22003KT 02/M00 A3027 RMK A01 T00221003  RH  084%=      5-min Rain = 0
KMNS 110200Z 23003KT 03/M00 A3027 RMK A01 T00251004  RH  082%=      5-min Rain = 0
KMNS 110205Z 22002KT 02/M01 A3027 RMK A01 T00241010  RH  079%=      5-min Rain = 0
KMNS 110210Z 22002KT 02/M01 A3027 RMK A01 T00231013  RH  078%=      5-min Rain = 0
KMNS 110215Z 22003KT 02/M01 A3027 RMK A01 T00201014  RH  079%=      5-min Rain = 0
KMNS 110220Z 22003KT 02/M02 A3027 RMK A01 T00181017  RH  078%=      5-min Rain = 0
KMNS 110225Z 21005KT 03/M02 A3027 RMK A01 T00251018  RH  074%=      5-min Rain = 0
KMNS 110230Z 21004KT 03/M02 A3027 RMK A01 T00271022  RH  071%=      5-min Rain = 0
KMNS 110235Z 22004KT 02/M02 A3027 RMK A01 T00231024  RH  072%=      5-min Rain = 0
KMNS 110240Z 22005KT 02/M02 A3027 RMK A01 T00221024  RH  072%=      5-min Rain = 0
KMNS 110245Z 22005KT 02/M02 A3027 RMK A01 T00231024  RH  071%=      5-min Rain = 0
KMNS 110250Z 21006KT 02/M03 A3027 RMK A01 T00221026  RH  071%=      5-min Rain = 0
KMNS 110255Z 21007KT 02/M02 A3027 RMK A01 T00231024  RH  072%=      5-min Rain = 0
KMNS 110300Z 21007KT 03/M02 A3027 RMK A01 T00271021  RH  071%=      5-min Rain = 0
KMNS 110305Z 21007KT 03/M02 A3027 RMK A01 T00261022  RH  071%=      5-min Rain = 0
KMNS 110310Z 21008KT 03/M02 A3027 RMK A01 T00291022  RH  070%=      5-min Rain = 0
KMNS 110315Z 22007KT 03/M02 A3027 RMK A01 T00251023  RH  071%=      5-min Rain = 0
KMNS 110320Z 22006KT 02/M02 A3027 RMK A01 T00221024  RH  072%=      5-min Rain = 0
KMNS 110325Z 22006KT 02/M02 A3027 RMK A01 T00221023  RH  072%=      5-min Rain = 0
KMNS 110330Z 23007KT 03/M02 A3027 RMK A01 T00261020  RH  072%=      5-min Rain = 0
KMNS 110335Z 23008KT 03/M02 A3027 RMK A01 T00311017  RH  071%=      5-min Rain = 0
KMNS 110340Z 23009KT 04/M01 A3027 RMK A01 T00371014  RH  070%=      5-min Rain = 0
KMNS 110345Z 23009KT 04/M01 A3027 RMK A01 T00391014  RH  069%=      5-min Rain = 0
KMNS 110350Z 23009KT 04/M01 A3027 RMK A01 T00381014  RH  069%=      5-min Rain = 0
KMNS 110355Z 23008KT 04/M01 A3027 RMK A01 T00351014  RH  071%=      5-min Rain = 0
KMNS 110400Z 23008KT 04/M01 A3027 RMK A01 T00351013  RH  071%=      5-min Rain = 0
KMNS 110405Z 23008KT 04/M01 A3027 RMK A01 T00361014  RH  071%=      5-min Rain = 0
KMNS 110410Z 23009KT 04/M02 A3027 RMK A01 T00351015  RH  070%=      5-min Rain = 0
KMNS 110415Z 23009KT 04/M01 A3027 RMK A01 T00361014  RH  070%=      5-min Rain = 0
KMNS 110420Z 23009KT 04/M01 A3027 RMK A01 T00361014  RH  071%=      5-min Rain = 0
KMNS 110425Z 23009KT 04/M01 A3027 RMK A01 T00361013  RH  071%=      5-min Rain = 0
KMNS 110430Z 23010KT 04/M01 A3027 RMK A01 T00361013  RH  071%=      5-min Rain = 0
KMNS 110435Z 23009KT 03/M01 A3027 RMK A01 T00341013  RH  072%=      5-min Rain = 0
KMNS 110440Z 23009KT 03/M01 A3027 RMK A01 T00331013  RH  073%=      5-min Rain = 0
KMNS 110445Z 24008KT 03/M01 A3027 RMK A01 T00311014  RH  073%=      5-min Rain = 0
KMNS 110450Z 23007KT 03/M01 A3027 RMK A01 T00301014  RH  073%=      5-min Rain = 0
KMNS 110455Z 23007KT 03/M01 A3027 RMK A01 T00301014  RH  073%=      5-min Rain = 0
KMNS 110500Z 23007KT 03/M02 A3027 RMK A01 T00291015  RH  074%=      5-min Rain = 0
KMNS 110505Z 23007KT 03/M02 A3027 RMK A01 T00281015  RH  074%=      5-min Rain = 0
KMNS 110510Z 22006KT 02/M02 A3027 RMK A01 T00241017  RH  075%=      5-min Rain = 0
KMNS 110515Z 22006KT 02/M02 A3027 RMK A01 T00201018  RH  077%=      5-min Rain = 0
KMNS 110520Z 22006KT 02/M02 A3027 RMK A01 T00181017  RH  078%=      5-min Rain = 0
KMNS 110525Z 21006KT 02/M02 A3027 RMK A01 T00171017  RH  079%=      5-min Rain = 0
KMNS 110530Z 21006KT 02/M02 A3026 RMK A01 T00151017  RH  080%=      5-min Rain = 0
KMNS 110535Z 21005KT 01/M02 A3026 RMK A01 T00131019  RH  080%=      5-min Rain = 0
KMNS 110540Z 21005KT 01/M02 A3026 RMK A01 T00101020  RH  081%=      5-min Rain = 0
KMNS 110545Z 22005KT 01/M02 A3026 RMK A01 T00091019  RH  083%=      5-min Rain = 0
KMNS 110550Z 22005KT 01/M02 A3026 RMK A01 T00091017  RH  084%=      5-min Rain = 0
KMNS 110555Z 22006KT 01/M01 A3026 RMK A01 T00111014  RH  084%=      5-min Rain = 0

Page generated in 0.009 seconds.